createdAt,value
2023-06-30T00:02:02.197Z,52.49
2023-06-30T00:04:31.432Z,52.46
2023-06-30T00:06:59.117Z,52.66
2023-06-30T00:09:26.957Z,52.70
2023-06-30T00:11:56.146Z,52.70
2023-06-30T00:14:24.155Z,52.63
2023-06-30T00:16:52.230Z,52.55
2023-06-30T00:19:21.107Z,52.59
2023-06-30T00:21:53.287Z,52.80
2023-06-30T00:24:21.666Z,52.95
2023-06-30T00:26:49.102Z,52.71
2023-06-30T00:29:17.721Z,52.67
2023-06-30T00:31:45.552Z,52.86
2023-06-30T00:34:13.157Z,52.89
2023-06-30T00:36:40.650Z,52.82
2023-06-30T00:39:08.389Z,52.84
2023-06-30T00:41:35.935Z,53.11
2023-06-30T00:44:03.393Z,53.02
2023-06-30T00:46:31.174Z,53.09
2023-06-30T00:48:59.389Z,53.06
2023-06-30T00:51:27.028Z,53.17
2023-06-30T00:53:56.949Z,53.29
2023-06-30T00:56:26.810Z,53.14
2023-06-30T00:58:54.620Z,53.24
2023-06-30T01:01:48.974Z,53.17
2023-06-30T01:04:43.531Z,53.05
2023-06-30T01:07:23.922Z,53.29
2023-06-30T01:10:15.232Z,53.62
2023-06-30T01:12:43.948Z,53.39
2023-06-30T01:15:12.885Z,53.42
2023-06-30T01:17:46.712Z,53.36
2023-06-30T01:20:17.784Z,53.59
2023-06-30T01:22:50.364Z,53.48
2023-06-30T01:25:27.645Z,53.58
2023-06-30T01:27:56.546Z,53.65
2023-06-30T01:30:25.255Z,53.87
2023-06-30T01:32:56.238Z,53.84
2023-06-30T01:35:24.274Z,53.96
2023-06-30T01:37:54.154Z,54.04
2023-06-30T01:40:22.225Z,53.95
2023-06-30T01:42:55.521Z,53.99
2023-06-30T01:45:26.851Z,53.96
2023-06-30T01:47:55.899Z,54.03
2023-06-30T01:50:23.746Z,54.00
2023-06-30T01:52:51.590Z,53.98
2023-06-30T01:55:19.313Z,53.83
2023-06-30T01:57:46.783Z,53.91
2023-06-30T02:00:15.240Z,54.27
2023-06-30T02:02:42.817Z,54.28
2023-06-30T02:05:13.014Z,54.15
2023-06-30T02:07:40.594Z,54.20
2023-06-30T02:10:08.989Z,54.24
2023-06-30T02:12:38.412Z,54.57
2023-06-30T02:15:06.759Z,54.57
2023-06-30T02:17:34.780Z,54.46
2023-06-30T02:20:07.520Z,54.45
2023-06-30T02:22:35.350Z,54.59
2023-06-30T02:25:03.164Z,54.58
2023-06-30T02:27:33.176Z,54.75
2023-06-30T02:30:09.320Z,54.78
2023-06-30T02:32:41.200Z,54.92
2023-06-30T02:35:10.268Z,54.73
2023-06-30T02:37:38.144Z,54.66
2023-06-30T02:40:06.871Z,54.75
2023-06-30T02:42:34.684Z,54.90
2023-06-30T02:45:02.148Z,54.85
2023-06-30T02:47:31.440Z,54.77
2023-06-30T02:49:59.251Z,54.82
2023-06-30T02:52:26.967Z,54.74
2023-06-30T02:54:54.563Z,54.97
2023-06-30T02:57:23.423Z,55.08
2023-06-30T02:59:51.539Z,55.13
2023-06-30T03:02:19.606Z,55.30
2023-06-30T03:04:47.696Z,55.21
2023-06-30T03:07:17.568Z,55.17
2023-06-30T03:09:46.055Z,55.03
2023-06-30T03:12:14.098Z,55.12
2023-06-30T03:14:43.138Z,55.17
2023-06-30T03:17:10.629Z,55.17
2023-06-30T03:19:38.513Z,55.18
2023-06-30T03:22:06.228Z,55.42
2023-06-30T03:24:33.725Z,55.42
2023-06-30T03:27:01.594Z,55.10
2023-06-30T03:29:29.176Z,54.95
2023-06-30T03:31:58.022Z,55.14
2023-06-30T03:34:25.876Z,55.07
2023-06-30T03:36:53.319Z,54.89
2023-06-30T03:39:21.085Z,54.82
2023-06-30T03:41:48.813Z,54.75
2023-06-30T03:44:16.371Z,54.80
2023-06-30T03:46:43.929Z,54.96
2023-06-30T03:49:11.751Z,54.88
2023-06-30T03:51:39.496Z,54.96
2023-06-30T03:54:09.912Z,54.79
2023-06-30T03:56:37.928Z,54.86
2023-06-30T03:59:06.311Z,54.87
2023-06-30T04:01:35.007Z,55.04
2023-06-30T04:04:03.737Z,54.88
2023-06-30T04:06:34.468Z,54.62
2023-06-30T04:09:01.937Z,54.74
2023-06-30T04:11:29.945Z,55.11
2023-06-30T04:14:00.298Z,54.77
2023-06-30T04:16:27.959Z,54.61
2023-06-30T04:18:56.164Z,54.18
2023-06-30T04:21:23.849Z,54.40
2023-06-30T04:23:51.319Z,54.36
2023-06-30T04:26:19.032Z,54.19
2023-06-30T04:28:46.763Z,54.10
2023-06-30T04:31:14.434Z,53.47
2023-06-30T04:33:42.219Z,53.30
2023-06-30T04:36:09.980Z,53.48
2023-06-30T04:38:37.623Z,53.40
2023-06-30T04:41:05.678Z,53.36
2023-06-30T04:43:34.116Z,53.31
2023-06-30T04:46:01.669Z,53.32
2023-06-30T04:48:29.573Z,52.97
2023-06-30T04:50:57.027Z,52.73
2023-06-30T04:53:24.496Z,52.90
2023-06-30T04:55:52.216Z,53.11
2023-06-30T04:58:19.677Z,52.75
2023-06-30T05:00:47.065Z,52.79
2023-06-30T05:03:14.856Z,52.28
2023-06-30T05:05:42.825Z,52.32
2023-06-30T05:08:10.381Z,51.83
2023-06-30T05:10:38.749Z,51.81
2023-06-30T05:13:06.236Z,51.92
2023-06-30T05:15:33.751Z,51.76
2023-06-30T05:18:02.130Z,51.88
2023-06-30T05:20:29.632Z,51.85
2023-06-30T05:22:57.054Z,51.25
2023-06-30T05:25:24.751Z,51.64
2023-06-30T05:27:52.271Z,51.50
2023-06-30T05:30:19.824Z,51.47
2023-06-30T05:32:47.523Z,51.78
2023-06-30T05:35:15.019Z,51.30
2023-06-30T05:37:42.466Z,51.44
2023-06-30T05:40:10.708Z,51.38
2023-06-30T05:42:38.310Z,51.41
2023-06-30T05:45:06.274Z,51.00
2023-06-30T05:47:34.044Z,50.95
2023-06-30T05:50:01.533Z,50.99
2023-06-30T05:52:29.047Z,51.13
2023-06-30T05:54:56.779Z,50.74
2023-06-30T05:57:24.201Z,50.75
2023-06-30T05:59:51.889Z,50.17
2023-06-30T06:02:19.694Z,50.85
2023-06-30T06:04:47.662Z,51.62
2023-06-30T06:07:15.313Z,50.99
2023-06-30T06:09:42.991Z,49.57
2023-06-30T06:12:10.727Z,49.37
2023-06-30T06:14:38.146Z,49.13
2023-06-30T06:17:05.788Z,48.08
2023-06-30T06:19:33.663Z,47.17
2023-06-30T06:22:01.833Z,47.01
2023-06-30T06:24:29.293Z,46.96
2023-06-30T06:26:57.053Z,46.21
2023-06-30T06:29:24.598Z,46.03
2023-06-30T06:31:52.727Z,45.16
2023-06-30T06:34:20.863Z,45.57
2023-06-30T06:36:48.903Z,45.48
2023-06-30T06:39:16.361Z,44.10
2023-06-30T06:41:45.995Z,44.56
2023-06-30T06:44:17.588Z,43.68
2023-06-30T06:46:45.358Z,43.05
2023-06-30T06:49:12.843Z,42.65
2023-06-30T06:51:40.403Z,41.21
2023-06-30T06:54:08.081Z,41.34
2023-06-30T06:56:35.528Z,40.42
2023-06-30T06:59:03.206Z,39.10
2023-06-30T07:01:31.709Z,39.14
2023-06-30T07:03:59.517Z,38.61
2023-06-30T07:06:26.966Z,38.30
2023-06-30T07:08:54.686Z,37.56
2023-06-30T07:11:22.234Z,38.01
2023-06-30T07:13:49.688Z,37.34
2023-06-30T07:16:19.511Z,36.92
2023-06-30T07:18:47.168Z,36.17
2023-06-30T07:21:14.632Z,36.72
2023-06-30T07:23:42.512Z,35.33
2023-06-30T07:26:10.687Z,36.05
2023-06-30T07:28:38.137Z,36.12
2023-06-30T07:31:05.911Z,35.77
2023-06-30T07:33:33.701Z,35.38
2023-06-30T07:36:01.138Z,35.88
2023-06-30T07:38:28.840Z,36.23
2023-06-30T07:40:57.493Z,34.48
2023-06-30T07:43:25.582Z,34.89
2023-06-30T07:45:53.510Z,33.89
2023-06-30T07:48:21.302Z,33.76
2023-06-30T07:50:59.612Z,34.53
2023-06-30T07:53:36.369Z,32.94
2023-06-30T07:56:04.020Z,33.08
2023-06-30T07:58:32.546Z,31.05
2023-06-30T08:01:00.316Z,32.01
2023-06-30T08:03:28.221Z,31.35
2023-06-30T08:05:57.645Z,31.97
2023-06-30T08:08:25.253Z,32.85
2023-06-30T08:10:53.039Z,33.36
2023-06-30T08:13:20.519Z,33.53
2023-06-30T08:15:49.503Z,34.25
2023-06-30T08:18:28.045Z,33.03
2023-06-30T08:21:00.759Z,32.33
2023-06-30T08:23:28.570Z,31.11
2023-06-30T08:25:56.531Z,31.80
2023-06-30T08:28:24.016Z,31.55
2023-06-30T08:30:52.671Z,31.52
2023-06-30T08:33:35.049Z,32.55
2023-06-30T08:36:07.512Z,32.68
2023-06-30T08:38:35.353Z,31.96
2023-06-30T08:41:04.284Z,31.85
2023-06-30T08:43:33.420Z,33.01
2023-06-30T08:46:05.070Z,32.66
2023-06-30T08:48:33.339Z,30.84
2023-06-30T08:51:01.445Z,30.82
2023-06-30T08:53:30.235Z,30.43
2023-06-30T08:55:59.574Z,30.25
2023-06-30T08:58:28.334Z,30.32
2023-06-30T09:00:59.104Z,30.23
2023-06-30T09:03:28.026Z,29.45
2023-06-30T09:05:56.948Z,28.85
2023-06-30T09:08:25.321Z,29.00
2023-06-30T09:10:54.644Z,29.59
2023-06-30T09:13:24.891Z,30.33
2023-06-30T09:15:55.698Z,29.87
2023-06-30T09:18:23.445Z,28.91
2023-06-30T09:20:51.075Z,29.30
2023-06-30T09:23:18.999Z,29.06
2023-06-30T09:25:46.981Z,28.87
2023-06-30T09:28:15.546Z,28.42
2023-06-30T09:30:45.539Z,29.09
2023-06-30T09:33:17.346Z,29.26
2023-06-30T09:35:48.599Z,28.86
2023-06-30T09:38:18.731Z,30.72
2023-06-30T09:40:48.411Z,30.71
2023-06-30T09:43:17.910Z,29.32
2023-06-30T09:46:04.298Z,29.47
2023-06-30T09:48:33.404Z,29.94
2023-06-30T09:51:01.179Z,28.64
2023-06-30T09:53:36.473Z,29.61
2023-06-30T09:56:04.920Z,28.81
2023-06-30T09:58:32.491Z,28.82
2023-06-30T10:01:00.180Z,28.54
2023-06-30T10:03:28.071Z,28.96
2023-06-30T10:05:55.623Z,29.22
2023-06-30T10:08:23.882Z,28.65
2023-06-30T10:10:54.927Z,29.99
2023-06-30T10:13:22.981Z,28.66
2023-06-30T10:15:51.293Z,29.30
2023-06-30T10:18:19.097Z,28.99
2023-06-30T10:20:49.706Z,28.64
2023-06-30T10:23:20.540Z,29.32
2023-06-30T10:25:49.264Z,28.43
2023-06-30T10:28:18.112Z,29.94
2023-06-30T10:30:45.945Z,28.68
2023-06-30T10:33:13.566Z,29.93
2023-06-30T10:35:41.570Z,28.52
2023-06-30T10:38:11.028Z,27.85
2023-06-30T10:40:38.671Z,27.41
2023-06-30T10:43:07.244Z,27.32
2023-06-30T10:45:35.708Z,29.76
2023-06-30T10:48:15.588Z,28.27
2023-06-30T10:50:45.613Z,27.77
2023-06-30T10:53:18.979Z,27.30
2023-06-30T10:55:48.089Z,26.94
2023-06-30T10:58:25.757Z,26.96
2023-06-30T11:01:06.858Z,28.12
2023-06-30T11:03:59.639Z,28.58
2023-06-30T11:06:27.947Z,27.97
2023-06-30T11:09:04.240Z,27.58
2023-06-30T11:11:51.797Z,27.50
2023-06-30T11:14:35.493Z,27.66
2023-06-30T11:17:05.616Z,27.88
2023-06-30T11:19:33.309Z,26.53
2023-06-30T11:22:26.815Z,26.10
2023-06-30T11:24:56.327Z,28.09
2023-06-30T11:27:24.195Z,29.41
2023-06-30T11:29:54.287Z,26.54
2023-06-30T11:32:32.275Z,27.06
2023-06-30T11:35:09.185Z,26.94
2023-06-30T11:37:38.059Z,28.52
2023-06-30T11:40:07.675Z,27.40
2023-06-30T11:42:40.593Z,28.58
2023-06-30T11:45:08.904Z,27.99
2023-06-30T11:47:37.271Z,27.66
2023-06-30T11:50:11.718Z,27.73
2023-06-30T11:52:40.359Z,28.39
2023-06-30T11:55:12.621Z,27.86
2023-06-30T11:57:41.708Z,27.36
2023-06-30T12:00:18.068Z,26.26
2023-06-30T12:02:57.375Z,28.01
2023-06-30T12:05:26.877Z,27.35
2023-06-30T12:07:58.902Z,27.48
2023-06-30T12:10:40.928Z,27.58
2023-06-30T12:13:09.594Z,26.76
2023-06-30T12:15:38.373Z,26.63
2023-06-30T12:18:07.314Z,26.65
2023-06-30T12:20:36.774Z,26.07
2023-06-30T12:23:06.188Z,26.60
2023-06-30T12:25:37.546Z,26.85
2023-06-30T12:28:08.541Z,26.60
2023-06-30T12:30:36.258Z,25.07
2023-06-30T12:33:05.008Z,27.06
2023-06-30T12:35:38.426Z,26.63
2023-06-30T12:38:08.712Z,26.14
2023-06-30T12:40:36.682Z,26.50
2023-06-30T12:43:04.970Z,27.06
2023-06-30T12:45:34.427Z,26.49
2023-06-30T12:48:03.525Z,27.80
2023-06-30T12:50:31.102Z,27.36
2023-06-30T12:52:58.971Z,28.22
2023-06-30T12:55:27.838Z,26.64
2023-06-30T12:57:55.550Z,26.33
2023-06-30T13:00:23.015Z,26.55
2023-06-30T13:02:50.932Z,26.52
2023-06-30T13:05:18.442Z,26.79
2023-06-30T13:07:46.030Z,26.09
2023-06-30T13:10:14.840Z,26.77
2023-06-30T13:12:42.454Z,27.27
2023-06-30T13:15:10.363Z,25.51
2023-06-30T13:17:38.498Z,25.84
2023-06-30T13:20:09.009Z,26.12
2023-06-30T13:22:42.672Z,26.55
2023-06-30T13:25:14.919Z,26.57
2023-06-30T13:27:42.560Z,27.71
2023-06-30T13:30:10.244Z,26.82
2023-06-30T13:32:41.031Z,25.96
2023-06-30T13:35:09.086Z,26.24
2023-06-30T13:37:36.679Z,26.33
2023-06-30T13:40:05.580Z,27.17
2023-06-30T13:42:33.067Z,26.82
2023-06-30T13:45:00.936Z,26.80
2023-06-30T13:47:28.752Z,26.69
2023-06-30T13:49:56.269Z,26.48
2023-06-30T13:52:23.711Z,26.54
2023-06-30T13:54:51.478Z,27.88
2023-06-30T13:57:18.955Z,26.67
2023-06-30T13:59:46.424Z,26.86
2023-06-30T14:02:14.163Z,27.30
2023-06-30T14:04:42.027Z,27.37
2023-06-30T14:07:09.533Z,27.34
2023-06-30T14:09:37.004Z,27.11
2023-06-30T14:12:06.377Z,26.27
2023-06-30T14:14:34.095Z,26.50
2023-06-30T14:17:01.586Z,26.66
2023-06-30T14:19:30.034Z,26.57
2023-06-30T14:21:59.279Z,26.82
2023-06-30T14:24:26.748Z,26.61
2023-06-30T14:26:54.467Z,26.89
2023-06-30T14:29:22.104Z,26.66
2023-06-30T14:31:49.566Z,27.00
2023-06-30T14:34:17.468Z,26.94
2023-06-30T14:36:44.985Z,27.37
2023-06-30T14:39:12.752Z,27.43
2023-06-30T14:41:49.892Z,27.13
2023-06-30T14:44:26.699Z,27.56
2023-06-30T14:46:55.509Z,27.35
2023-06-30T14:49:23.055Z,27.63
2023-06-30T14:51:50.734Z,28.06
2023-06-30T14:54:18.471Z,28.36
2023-06-30T14:56:46.189Z,28.04
2023-06-30T14:59:13.742Z,28.09
2023-06-30T15:01:41.495Z,28.46
2023-06-30T15:04:09.019Z,28.35
2023-06-30T15:06:36.473Z,28.74
2023-06-30T15:09:04.238Z,28.72
2023-06-30T15:11:31.687Z,29.11
2023-06-30T15:13:59.108Z,28.93
2023-06-30T15:16:26.995Z,28.70
2023-06-30T15:18:54.449Z,28.35
2023-06-30T15:21:21.921Z,28.83
2023-06-30T15:23:49.695Z,28.79
2023-06-30T15:26:17.409Z,29.44
2023-06-30T15:28:44.837Z,29.67
2023-06-30T15:31:12.570Z,29.82
2023-06-30T15:33:40.113Z,29.85
2023-06-30T15:36:07.622Z,28.29
2023-06-30T15:38:35.399Z,28.52
2023-06-30T15:41:21.291Z,29.13
2023-06-30T15:43:51.251Z,29.25
2023-06-30T15:46:19.160Z,28.98
2023-06-30T15:48:46.737Z,29.33
2023-06-30T15:51:14.492Z,29.33
2023-06-30T15:53:42.244Z,30.09
2023-06-30T15:56:09.941Z,29.45
2023-06-30T15:58:37.707Z,29.50
2023-06-30T16:01:05.221Z,29.35
2023-06-30T16:03:33.227Z,29.31
2023-06-30T16:06:01.118Z,29.53
2023-06-30T16:08:28.692Z,29.35
2023-06-30T16:10:56.412Z,29.51
2023-06-30T16:13:23.906Z,29.35
2023-06-30T16:15:51.510Z,29.14
2023-06-30T16:18:20.126Z,29.32
2023-06-30T16:20:47.593Z,29.33
2023-06-30T16:23:15.056Z,29.45
2023-06-30T16:25:42.882Z,29.15
2023-06-30T16:28:10.339Z,29.37
2023-06-30T16:30:38.105Z,29.03
2023-06-30T16:33:06.019Z,29.47
2023-06-30T16:35:34.350Z,29.69
2023-06-30T16:38:02.436Z,29.96
2023-06-30T16:40:30.173Z,29.40
2023-06-30T16:42:57.802Z,29.26
2023-06-30T16:45:25.325Z,29.16
2023-06-30T16:47:53.096Z,29.09
2023-06-30T16:50:20.657Z,29.16
2023-06-30T16:52:49.872Z,29.40
2023-06-30T16:55:17.686Z,29.31
2023-06-30T16:57:45.185Z,29.34
2023-06-30T17:00:13.453Z,29.74
2023-06-30T17:02:41.388Z,29.86
2023-06-30T17:05:09.838Z,30.35
2023-06-30T17:07:37.494Z,30.28
2023-06-30T17:10:05.780Z,30.25
2023-06-30T17:12:34.868Z,30.28
2023-06-30T17:15:02.443Z,30.01
2023-06-30T17:17:30.218Z,29.76
2023-06-30T17:19:57.752Z,29.85
2023-06-30T17:22:25.261Z,29.74
2023-06-30T17:24:56.041Z,30.00
2023-06-30T17:27:26.419Z,29.91
2023-06-30T17:29:54.264Z,30.48
2023-06-30T17:32:21.829Z,30.52
2023-06-30T17:34:49.348Z,30.62
2023-06-30T17:37:17.095Z,30.51
2023-06-30T17:39:44.512Z,30.55
2023-06-30T17:42:12.008Z,30.55
2023-06-30T17:44:41.481Z,30.82
2023-06-30T17:47:09.054Z,30.89
2023-06-30T17:49:36.721Z,31.07
2023-06-30T17:52:04.807Z,31.08
2023-06-30T17:54:32.771Z,31.21
2023-06-30T17:57:02.841Z,31.47
2023-06-30T17:59:32.112Z,31.52
2023-06-30T18:02:00.038Z,31.58
2023-06-30T18:04:28.321Z,31.87
2023-06-30T18:07:02.239Z,32.12
2023-06-30T18:09:30.525Z,32.28
2023-06-30T18:11:58.880Z,32.76
2023-06-30T18:14:27.308Z,33.46
2023-06-30T18:16:55.024Z,33.98
2023-06-30T18:19:23.542Z,34.06
2023-06-30T18:21:52.358Z,34.29
2023-06-30T18:24:20.485Z,34.70
2023-06-30T18:26:49.161Z,34.66
2023-06-30T18:29:24.664Z,34.85
2023-06-30T18:31:53.942Z,35.00
2023-06-30T18:34:22.021Z,35.12
2023-06-30T18:36:49.902Z,35.36
2023-06-30T18:39:17.891Z,35.44
2023-06-30T18:41:45.598Z,35.59
2023-06-30T18:44:13.087Z,35.83
2023-06-30T18:46:40.890Z,36.00
2023-06-30T18:49:11.720Z,36.31
2023-06-30T18:51:42.912Z,36.50
2023-06-30T18:54:11.105Z,36.60
2023-06-30T18:56:38.804Z,36.68
2023-06-30T18:59:06.303Z,36.92
2023-06-30T19:01:34.377Z,37.21
2023-06-30T19:04:02.840Z,37.37
2023-06-30T19:06:30.773Z,37.69
2023-06-30T19:08:58.618Z,37.99
2023-06-30T19:11:26.357Z,38.35
2023-06-30T19:13:53.876Z,38.59
2023-06-30T19:16:21.805Z,38.59
2023-06-30T19:18:49.350Z,38.61
2023-06-30T19:21:17.446Z,38.91
2023-06-30T19:23:45.416Z,39.46
2023-06-30T19:26:13.127Z,39.96
2023-06-30T19:28:41.082Z,40.30
2023-06-30T19:31:09.021Z,40.54
2023-06-30T19:33:37.755Z,40.84
2023-06-30T19:36:06.379Z,40.97
2023-06-30T19:38:34.293Z,41.13
2023-06-30T19:41:01.873Z,41.29
2023-06-30T19:43:29.839Z,41.51
2023-06-30T19:45:57.587Z,41.96
2023-06-30T19:48:25.052Z,42.18
2023-06-30T19:50:52.553Z,42.61
2023-06-30T19:53:20.385Z,42.88
2023-06-30T19:55:48.220Z,43.17
2023-06-30T19:58:16.469Z,43.08
2023-06-30T20:00:44.303Z,42.84
2023-06-30T20:03:12.124Z,42.71
2023-06-30T20:05:39.701Z,42.64
2023-06-30T20:08:07.140Z,42.66
2023-06-30T20:10:35.155Z,42.72
2023-06-30T20:13:03.098Z,43.08
2023-06-30T20:15:32.371Z,43.64
2023-06-30T20:18:00.232Z,43.94
2023-06-30T20:20:28.847Z,44.17
2023-06-30T20:22:56.395Z,44.20
2023-06-30T20:25:24.623Z,44.46
2023-06-30T20:27:52.445Z,44.59
2023-06-30T20:30:20.179Z,44.89
2023-06-30T20:32:48.008Z,45.02
2023-06-30T20:35:18.268Z,45.17
2023-06-30T20:37:46.614Z,45.12
2023-06-30T20:40:14.395Z,45.44
2023-06-30T20:42:41.820Z,45.68
2023-06-30T20:45:10.422Z,45.77
2023-06-30T20:47:38.440Z,45.76
2023-06-30T20:50:06.585Z,45.91
2023-06-30T20:52:34.044Z,46.32
2023-06-30T20:55:01.949Z,46.38
2023-06-30T20:57:29.449Z,46.37
2023-06-30T20:59:57.240Z,46.47
2023-06-30T21:02:25.001Z,46.60
2023-06-30T21:04:54.136Z,46.70
2023-06-30T21:07:21.738Z,46.81
2023-06-30T21:09:49.650Z,46.89
2023-06-30T21:12:17.210Z,46.88
2023-06-30T21:14:44.785Z,46.86
2023-06-30T21:17:12.542Z,47.01
2023-06-30T21:19:40.990Z,46.83
2023-06-30T21:22:10.690Z,47.01
2023-06-30T21:24:38.484Z,46.90
2023-06-30T21:27:06.085Z,46.94
2023-06-30T21:29:33.486Z,46.94
2023-06-30T21:32:01.283Z,46.96
2023-06-30T21:34:28.856Z,46.91
2023-06-30T21:36:56.588Z,47.13
2023-06-30T21:39:24.431Z,47.42
2023-06-30T21:41:51.927Z,47.37
2023-06-30T21:44:19.599Z,47.39
2023-06-30T21:46:47.336Z,47.59
2023-06-30T21:49:14.789Z,47.65
2023-06-30T21:51:42.515Z,47.59
2023-06-30T21:54:10.237Z,47.70
2023-06-30T21:56:37.955Z,47.79
2023-06-30T21:59:06.000Z,47.80
2023-06-30T22:01:41.111Z,47.97
2023-06-30T22:04:10.287Z,47.91
2023-06-30T22:06:37.943Z,47.76
2023-06-30T22:09:15.491Z,47.90
2023-06-30T22:11:45.024Z,47.99
2023-06-30T22:14:15.436Z,47.93
2023-06-30T22:16:43.031Z,48.17
2023-06-30T22:19:10.736Z,48.33
2023-06-30T22:21:38.317Z,48.54
2023-06-30T22:24:06.017Z,48.62
2023-06-30T22:26:33.789Z,48.75
2023-06-30T22:29:01.226Z,48.87
2023-06-30T22:31:28.799Z,48.96
2023-06-30T22:33:56.654Z,49.05
2023-06-30T22:36:24.124Z,49.28
2023-06-30T22:38:51.540Z,49.29
2023-06-30T22:41:19.300Z,49.27
2023-06-30T22:43:48.620Z,49.20
2023-06-30T22:46:16.282Z,49.23
2023-06-30T22:48:44.519Z,49.45
2023-06-30T22:51:12.856Z,49.70
2023-06-30T22:53:40.289Z,49.77
2023-06-30T22:56:08.071Z,49.71
2023-06-30T22:58:35.655Z,49.74
2023-06-30T23:01:03.151Z,49.80
2023-06-30T23:03:31.086Z,50.08
2023-06-30T23:05:58.603Z,50.07
2023-06-30T23:08:26.079Z,50.02
2023-06-30T23:10:54.147Z,49.83
2023-06-30T23:13:21.580Z,49.96
2023-06-30T23:15:49.208Z,50.28
2023-06-30T23:18:20.445Z,50.20
2023-06-30T23:20:48.432Z,50.39
2023-06-30T23:23:16.145Z,50.45
2023-06-30T23:25:43.955Z,50.46
2023-06-30T23:28:11.367Z,50.77
2023-06-30T23:30:40.835Z,50.80
2023-06-30T23:33:08.870Z,50.95
2023-06-30T23:35:36.351Z,50.74
2023-06-30T23:38:03.799Z,50.84
2023-06-30T23:40:31.484Z,51.00
2023-06-30T23:43:01.031Z,51.19
2023-06-30T23:45:28.481Z,50.87
2023-06-30T23:47:56.285Z,50.86
2023-06-30T23:50:24.505Z,50.90
2023-06-30T23:52:51.938Z,51.01
2023-06-30T23:55:19.677Z,50.87
2023-06-30T23:57:47.169Z,50.85
